sensor_id;sensor_type;location;lat;lon;timestamp;P1;durP1;ratioP1;P2;durP2;ratioP2
71622;SDS011;59473;53.214;5.728;2023-07-22T00:00:10;4.43;;;1.70;;
71622;SDS011;59473;53.214;5.728;2023-07-22T00:02:39;5.50;;;1.83;;
71622;SDS011;59473;53.214;5.728;2023-07-22T00:05:05;4.80;;;2.10;;
71622;SDS011;59473;53.214;5.728;2023-07-22T00:07:30;6.53;;;2.20;;
71622;SDS011;59473;53.214;5.728;2023-07-22T00:09:55;6.50;;;1.77;;
71622;SDS011;59473;53.214;5.728;2023-07-22T00:12:20;7.43;;;2.07;;
71622;SDS011;59473;53.214;5.728;2023-07-22T00:14:50;5.22;;;2.30;;
71622;SDS011;59473;53.214;5.728;2023-07-22T00:17:15;4.03;;;1.83;;
71622;SDS011;59473;53.214;5.728;2023-07-22T00:19:40;8.47;;;2.10;;
71622;SDS011;59473;53.214;5.728;2023-07-22T00:22:06;7.83;;;2.27;;
71622;SDS011;59473;53.214;5.728;2023-07-22T00:24:31;4.77;;;2.13;;
71622;SDS011;59473;53.214;5.728;2023-07-22T00:26:57;9.13;;;2.47;;
71622;SDS011;59473;53.214;5.728;2023-07-22T00:29:22;6.37;;;2.10;;
71622;SDS011;59473;53.214;5.728;2023-07-22T00:31:47;5.67;;;2.30;;
71622;SDS011;59473;53.214;5.728;2023-07-22T00:34:12;7.63;;;1.73;;
71622;SDS011;59473;53.214;5.728;2023-07-22T00:36:38;7.07;;;2.10;;
71622;SDS011;59473;53.214;5.728;2023-07-22T00:39:03;7.88;;;2.28;;
71622;SDS011;59473;53.214;5.728;2023-07-22T00:41:29;6.07;;;2.03;;
71622;SDS011;59473;53.214;5.728;2023-07-22T00:43:54;6.47;;;2.17;;
71622;SDS011;59473;53.214;5.728;2023-07-22T00:46:20;5.60;;;1.70;;
71622;SDS011;59473;53.214;5.728;2023-07-22T00:48:45;6.13;;;1.80;;
71622;SDS011;59473;53.214;5.728;2023-07-22T00:51:11;6.67;;;2.07;;
71622;SDS011;59473;53.214;5.728;2023-07-22T00:53:36;5.47;;;2.00;;
71622;SDS011;59473;53.214;5.728;2023-07-22T00:56:01;7.80;;;1.87;;
71622;SDS011;59473;53.214;5.728;2023-07-22T00:58:26;5.57;;;2.53;;
71622;SDS011;59473;53.214;5.728;2023-07-22T01:00:52;6.47;;;2.57;;
71622;SDS011;59473;53.214;5.728;2023-07-22T01:03:17;8.30;;;2.40;;
71622;SDS011;59473;53.214;5.728;2023-07-22T01:05:43;5.03;;;2.13;;
71622;SDS011;59473;53.214;5.728;2023-07-22T01:08:09;7.78;;;3.08;;
71622;SDS011;59473;53.214;5.728;2023-07-22T01:10:35;4.90;;;2.37;;
71622;SDS011;59473;53.214;5.728;2023-07-22T01:13:00;6.77;;;2.50;;
71622;SDS011;59473;53.214;5.728;2023-07-22T01:15:25;6.93;;;2.40;;
71622;SDS011;59473;53.214;5.728;2023-07-22T01:17:51;8.03;;;2.70;;
71622;SDS011;59473;53.214;5.728;2023-07-22T01:20:16;4.88;;;2.45;;
71622;SDS011;59473;53.214;5.728;2023-07-22T01:22:49;6.70;;;2.45;;
71622;SDS011;59473;53.214;5.728;2023-07-22T01:25:15;6.70;;;2.33;;
71622;SDS011;59473;53.214;5.728;2023-07-22T01:27:41;6.60;;;2.53;;
71622;SDS011;59473;53.214;5.728;2023-07-22T01:30:06;8.10;;;2.73;;
71622;SDS011;59473;53.214;5.728;2023-07-22T01:32:34;6.95;;;2.47;;
71622;SDS011;59473;53.214;5.728;2023-07-22T01:34:59;7.47;;;3.00;;
71622;SDS011;59473;53.214;5.728;2023-07-22T01:37:25;8.20;;;2.80;;
71622;SDS011;59473;53.214;5.728;2023-07-22T01:39:50;7.47;;;3.10;;
71622;SDS011;59473;53.214;5.728;2023-07-22T01:42:15;5.77;;;2.60;;
71622;SDS011;59473;53.214;5.728;2023-07-22T01:44:41;7.75;;;2.90;;
71622;SDS011;59473;53.214;5.728;2023-07-22T01:47:06;6.40;;;3.33;;
71622;SDS011;59473;53.214;5.728;2023-07-22T01:49:31;6.60;;;2.77;;
71622;SDS011;59473;53.214;5.728;2023-07-22T01:51:56;8.87;;;3.00;;
71622;SDS011;59473;53.214;5.728;2023-07-22T01:54:22;9.47;;;3.30;;
71622;SDS011;59473;53.214;5.728;2023-07-22T01:56:47;10.40;;;3.40;;
71622;SDS011;59473;53.214;5.728;2023-07-22T01:59:12;7.40;;;3.63;;
71622;SDS011;59473;53.214;5.728;2023-07-22T02:01:37;12.53;;;3.37;;
71622;SDS011;59473;53.214;5.728;2023-07-22T02:04:03;6.90;;;2.90;;
71622;SDS011;59473;53.214;5.728;2023-07-22T02:06:28;9.07;;;2.93;;
71622;SDS011;59473;53.214;5.728;2023-07-22T02:08:54;6.37;;;3.00;;
71622;SDS011;59473;53.214;5.728;2023-07-22T02:11:19;9.32;;;3.53;;
71622;SDS011;59473;53.214;5.728;2023-07-22T02:13:45;9.07;;;3.20;;
71622;SDS011;59473;53.214;5.728;2023-07-22T02:16:10;7.43;;;3.30;;
71622;SDS011;59473;53.214;5.728;2023-07-22T02:18:38;8.93;;;3.85;;
71622;SDS011;59473;53.214;5.728;2023-07-22T02:21:03;7.27;;;3.07;;
71622;SDS011;59473;53.214;5.728;2023-07-22T02:23:28;6.40;;;3.17;;
71622;SDS011;59473;53.214;5.728;2023-07-22T02:25:54;7.93;;;3.50;;
71622;SDS011;59473;53.214;5.728;2023-07-22T02:28:19;5.47;;;3.07;;
71622;SDS011;59473;53.214;5.728;2023-07-22T02:30:47;6.47;;;3.40;;
71622;SDS011;59473;53.214;5.728;2023-07-22T02:33:13;6.90;;;3.43;;
71622;SDS011;59473;53.214;5.728;2023-07-22T02:35:38;8.38;;;3.60;;
71622;SDS011;59473;53.214;5.728;2023-07-22T02:38:03;10.43;;;3.30;;
71622;SDS011;59473;53.214;5.728;2023-07-22T02:40:29;7.67;;;3.40;;
71622;SDS011;59473;53.214;5.728;2023-07-22T02:42:54;8.23;;;3.27;;
71622;SDS011;59473;53.214;5.728;2023-07-22T02:45:19;6.70;;;2.90;;
71622;SDS011;59473;53.214;5.728;2023-07-22T02:47:44;8.93;;;3.33;;
71622;SDS011;59473;53.214;5.728;2023-07-22T02:50:09;9.13;;;3.63;;
71622;SDS011;59473;53.214;5.728;2023-07-22T02:52:35;12.48;;;3.63;;
71622;SDS011;59473;53.214;5.728;2023-07-22T02:55:05;7.20;;;3.40;;
71622;SDS011;59473;53.214;5.728;2023-07-22T02:57:30;10.23;;;3.97;;
71622;SDS011;59473;53.214;5.728;2023-07-22T02:59:56;7.93;;;3.90;;
71622;SDS011;59473;53.214;5.728;2023-07-22T03:02:21;9.77;;;3.70;;
71622;SDS011;59473;53.214;5.728;2023-07-22T03:04:46;12.17;;;3.87;;
71622;SDS011;59473;53.214;5.728;2023-07-22T03:07:11;8.93;;;3.33;;
71622;SDS011;59473;53.214;5.728;2023-07-22T03:09:37;8.23;;;3.57;;
71622;SDS011;59473;53.214;5.728;2023-07-22T03:12:02;8.90;;;3.67;;
71622;SDS011;59473;53.214;5.728;2023-07-22T03:14:27;9.83;;;3.60;;
71622;SDS011;59473;53.214;5.728;2023-07-22T03:16:52;9.47;;;3.93;;
71622;SDS011;59473;53.214;5.728;2023-07-22T03:19:18;8.32;;;4.05;;
71622;SDS011;59473;53.214;5.728;2023-07-22T03:21:44;11.17;;;4.10;;
71622;SDS011;59473;53.214;5.728;2023-07-22T03:24:09;11.83;;;4.10;;
71622;SDS011;59473;53.214;5.728;2023-07-22T03:26:34;10.30;;;4.53;;
71622;SDS011;59473;53.214;5.728;2023-07-22T03:29:00;8.17;;;3.37;;
71622;SDS011;59473;53.214;5.728;2023-07-22T03:31:25;8.87;;;3.70;;
71622;SDS011;59473;53.214;5.728;2023-07-22T03:33:50;9.63;;;4.27;;
71622;SDS011;59473;53.214;5.728;2023-07-22T03:36:15;7.63;;;3.53;;
71622;SDS011;59473;53.214;5.728;2023-07-22T03:38:41;11.50;;;3.93;;
71622;SDS011;59473;53.214;5.728;2023-07-22T03:41:06;8.63;;;4.20;;
71622;SDS011;59473;53.214;5.728;2023-07-22T03:43:31;7.68;;;3.85;;
71622;SDS011;59473;53.214;5.728;2023-07-22T03:45:56;7.83;;;4.37;;
71622;SDS011;59473;53.214;5.728;2023-07-22T03:48:22;11.05;;;4.70;;
71622;SDS011;59473;53.214;5.728;2023-07-22T03:50:47;9.03;;;4.30;;
71622;SDS011;59473;53.214;5.728;2023-07-22T03:53:12;11.67;;;4.80;;
71622;SDS011;59473;53.214;5.728;2023-07-22T03:55:38;9.77;;;4.47;;
71622;SDS011;59473;53.214;5.728;2023-07-22T03:58:03;11.03;;;4.93;;
71622;SDS011;59473;53.214;5.728;2023-07-22T04:00:29;9.80;;;4.57;;
71622;SDS011;59473;53.214;5.728;2023-07-22T04:02:54;10.53;;;4.80;;
71622;SDS011;59473;53.214;5.728;2023-07-22T04:05:19;9.03;;;4.47;;
71622;SDS011;59473;53.214;5.728;2023-07-22T04:07:45;10.00;;;4.87;;
71622;SDS011;59473;53.214;5.728;2023-07-22T04:10:10;10.45;;;4.82;;
71622;SDS011;59473;53.214;5.728;2023-07-22T04:12:35;12.77;;;5.23;;
71622;SDS011;59473;53.214;5.728;2023-07-22T04:15:00;12.60;;;5.23;;
71622;SDS011;59473;53.214;5.728;2023-07-22T04:17:26;11.50;;;5.20;;
71622;SDS011;59473;53.214;5.728;2023-07-22T04:19:51;12.23;;;5.27;;
71622;SDS011;59473;53.214;5.728;2023-07-22T04:22:17;15.07;;;5.45;;
71622;SDS011;59473;53.214;5.728;2023-07-22T04:24:42;12.40;;;5.47;;
71622;SDS011;59473;53.214;5.728;2023-07-22T04:27:09;16.20;;;6.00;;
71622;SDS011;59473;53.214;5.728;2023-07-22T04:29:35;16.13;;;5.95;;
71622;SDS011;59473;53.214;5.728;2023-07-22T04:32:00;19.95;;;6.05;;
71622;SDS011;59473;53.214;5.728;2023-07-22T04:34:29;14.57;;;5.93;;
71622;SDS011;59473;53.214;5.728;2023-07-22T04:36:55;16.67;;;7.10;;
71622;SDS011;59473;53.214;5.728;2023-07-22T04:39:21;15.25;;;6.55;;
71622;SDS011;59473;53.214;5.728;2023-07-22T04:41:46;13.40;;;6.10;;
71622;SDS011;59473;53.214;5.728;2023-07-22T04:44:11;16.57;;;6.13;;
71622;SDS011;59473;53.214;5.728;2023-07-22T04:46:36;17.37;;;6.87;;
71622;SDS011;59473;53.214;5.728;2023-07-22T04:49:01;14.73;;;6.97;;
71622;SDS011;59473;53.214;5.728;2023-07-22T04:51:27;15.63;;;6.72;;
71622;SDS011;59473;53.214;5.728;2023-07-22T04:53:52;17.13;;;6.97;;
71622;SDS011;59473;53.214;5.728;2023-07-22T04:56:18;14.37;;;6.00;;
71622;SDS011;59473;53.214;5.728;2023-07-22T04:58:43;18.47;;;6.87;;
71622;SDS011;59473;53.214;5.728;2023-07-22T05:01:08;18.30;;;7.30;;
71622;SDS011;59473;53.214;5.728;2023-07-22T05:03:34;14.30;;;6.30;;
71622;SDS011;59473;53.214;5.728;2023-07-22T05:05:59;15.40;;;7.20;;
71622;SDS011;59473;53.214;5.728;2023-07-22T05:08:24;18.70;;;6.60;;
71622;SDS011;59473;53.214;5.728;2023-07-22T05:10:50;13.75;;;6.43;;
71622;SDS011;59473;53.214;5.728;2023-07-22T05:13:15;15.40;;;7.07;;
71622;SDS011;59473;53.214;5.728;2023-07-22T05:15:41;14.00;;;6.60;;
71622;SDS011;59473;53.214;5.728;2023-07-22T05:18:06;16.23;;;7.10;;
71622;SDS011;59473;53.214;5.728;2023-07-22T05:20:31;17.07;;;6.87;;
71622;SDS011;59473;53.214;5.728;2023-07-22T05:22:57;13.77;;;6.60;;
71622;SDS011;59473;53.214;5.728;2023-07-22T05:25:22;15.88;;;6.75;;
71622;SDS011;59473;53.214;5.728;2023-07-22T05:27:47;15.10;;;6.37;;
71622;SDS011;59473;53.214;5.728;2023-07-22T05:30:13;14.83;;;6.63;;
71622;SDS011;59473;53.214;5.728;2023-07-22T05:32:38;16.30;;;6.43;;
71622;SDS011;59473;53.214;5.728;2023-07-22T05:35:03;14.90;;;5.93;;
71622;SDS011;59473;53.214;5.728;2023-07-22T05:37:30;13.10;;;5.93;;
71622;SDS011;59473;53.214;5.728;2023-07-22T05:39:55;14.10;;;6.73;;
71622;SDS011;59473;53.214;5.728;2023-07-22T05:42:20;12.00;;;6.30;;
71622;SDS011;59473;53.214;5.728;2023-07-22T05:44:46;14.03;;;6.93;;
71622;SDS011;59473;53.214;5.728;2023-07-22T05:47:11;14.40;;;6.10;;
71622;SDS011;59473;53.214;5.728;2023-07-22T05:49:36;13.10;;;5.93;;
71622;SDS011;59473;53.214;5.728;2023-07-22T05:52:01;11.50;;;5.63;;
71622;SDS011;59473;53.214;5.728;2023-07-22T05:54:27;12.57;;;6.37;;
71622;SDS011;59473;53.214;5.728;2023-07-22T05:56:52;11.43;;;5.33;;
71622;SDS011;59473;53.214;5.728;2023-07-22T05:59:17;15.10;;;6.60;;
71622;SDS011;59473;53.214;5.728;2023-07-22T06:01:42;12.00;;;6.20;;
71622;SDS011;59473;53.214;5.728;2023-07-22T06:04:08;13.17;;;6.27;;
71622;SDS011;59473;53.214;5.728;2023-07-22T06:06:33;10.80;;;5.30;;
71622;SDS011;59473;53.214;5.728;2023-07-22T06:08:59;12.77;;;5.03;;
71622;SDS011;59473;53.214;5.728;2023-07-22T06:11:24;15.17;;;5.70;;
71622;SDS011;59473;53.214;5.728;2023-07-22T06:13:49;10.97;;;5.40;;
71622;SDS011;59473;53.214;5.728;2023-07-22T06:16:14;13.10;;;6.03;;
71622;SDS011;59473;53.214;5.728;2023-07-22T06:18:40;14.80;;;7.43;;
71622;SDS011;59473;53.214;5.728;2023-07-22T06:21:05;17.37;;;7.20;;
71622;SDS011;59473;53.214;5.728;2023-07-22T06:23:30;16.97;;;7.33;;
71622;SDS011;59473;53.214;5.728;2023-07-22T06:25:56;18.53;;;8.30;;
71622;SDS011;59473;53.214;5.728;2023-07-22T06:28:21;16.77;;;7.63;;
71622;SDS011;59473;53.214;5.728;2023-07-22T06:30:46;17.27;;;7.63;;
71622;SDS011;59473;53.214;5.728;2023-07-22T06:33:12;18.13;;;7.03;;
71622;SDS011;59473;53.214;5.728;2023-07-22T06:35:37;18.07;;;7.43;;
71622;SDS011;59473;53.214;5.728;2023-07-22T06:38:02;18.73;;;7.50;;
71622;SDS011;59473;53.214;5.728;2023-07-22T06:40:28;15.20;;;7.60;;
71622;SDS011;59473;53.214;5.728;2023-07-22T06:42:53;15.27;;;6.67;;
71622;SDS011;59473;53.214;5.728;2023-07-22T06:45:18;16.00;;;7.65;;
71622;SDS011;59473;53.214;5.728;2023-07-22T06:47:44;14.93;;;7.47;;
71622;SDS011;59473;53.214;5.728;2023-07-22T06:50:09;18.45;;;7.30;;
71622;SDS011;59473;53.214;5.728;2023-07-22T06:52:34;17.97;;;6.43;;
71622;SDS011;59473;53.214;5.728;2023-07-22T06:55:00;16.30;;;7.50;;
71622;SDS011;59473;53.214;5.728;2023-07-22T06:57:25;15.47;;;7.23;;
71622;SDS011;59473;53.214;5.728;2023-07-22T06:59:53;15.45;;;7.20;;
71622;SDS011;59473;53.214;5.728;2023-07-22T07:02:18;15.87;;;6.60;;
71622;SDS011;59473;53.214;5.728;2023-07-22T07:04:44;14.73;;;6.38;;
71622;SDS011;59473;53.214;5.728;2023-07-22T07:07:09;17.25;;;6.60;;
71622;SDS011;59473;53.214;5.728;2023-07-22T07:09:34;15.57;;;6.60;;
71622;SDS011;59473;53.214;5.728;2023-07-22T07:12:00;13.10;;;5.90;;
71622;SDS011;59473;53.214;5.728;2023-07-22T07:14:25;13.97;;;5.87;;
71622;SDS011;59473;53.214;5.728;2023-07-22T07:16:50;16.27;;;6.47;;
71622;SDS011;59473;53.214;5.728;2023-07-22T07:19:15;17.53;;;6.77;;
71622;SDS011;59473;53.214;5.728;2023-07-22T07:21:41;15.47;;;6.50;;
71622;SDS011;59473;53.214;5.728;2023-07-22T07:24:07;14.67;;;6.73;;
71622;SDS011;59473;53.214;5.728;2023-07-22T07:26:32;13.93;;;6.43;;
71622;SDS011;59473;53.214;5.728;2023-07-22T07:28:57;13.80;;;6.50;;
71622;SDS011;59473;53.214;5.728;2023-07-22T07:31:23;15.27;;;7.10;;
71622;SDS011;59473;53.214;5.728;2023-07-22T07:33:48;13.83;;;7.13;;
71622;SDS011;59473;53.214;5.728;2023-07-22T07:36:13;15.53;;;7.30;;
71622;SDS011;59473;53.214;5.728;2023-07-22T07:38:39;15.20;;;7.18;;
71622;SDS011;59473;53.214;5.728;2023-07-22T07:41:05;14.17;;;6.97;;
71622;SDS011;59473;53.214;5.728;2023-07-22T07:43:36;13.95;;;6.40;;
71622;SDS011;59473;53.214;5.728;2023-07-22T07:46:21;12.37;;;5.63;;
71622;SDS011;59473;53.214;5.728;2023-07-22T07:48:47;12.65;;;5.72;;
71622;SDS011;59473;53.214;5.728;2023-07-22T07:51:16;14.73;;;5.68;;
71622;SDS011;59473;53.214;5.728;2023-07-22T07:53:42;12.95;;;5.53;;
71622;SDS011;59473;53.214;5.728;2023-07-22T07:56:09;13.43;;;5.30;;
71622;SDS011;59473;53.214;5.728;2023-07-22T07:58:34;12.67;;;5.60;;
71622;SDS011;59473;53.214;5.728;2023-07-22T08:00:59;9.57;;;4.50;;
71622;SDS011;59473;53.214;5.728;2023-07-22T08:03:24;10.17;;;4.77;;
71622;SDS011;59473;53.214;5.728;2023-07-22T08:05:50;10.50;;;4.30;;
71622;SDS011;59473;53.214;5.728;2023-07-22T08:08:15;10.87;;;5.00;;
71622;SDS011;59473;53.214;5.728;2023-07-22T08:10:41;10.40;;;5.10;;
71622;SDS011;59473;53.214;5.728;2023-07-22T08:13:07;11.88;;;4.40;;
71622;SDS011;59473;53.214;5.728;2023-07-22T08:15:32;9.30;;;4.10;;
71622;SDS011;59473;53.214;5.728;2023-07-22T08:17:59;9.23;;;4.10;;
71622;SDS011;59473;53.214;5.728;2023-07-22T08:20:24;20.73;;;4.50;;
71622;SDS011;59473;53.214;5.728;2023-07-22T08:22:49;12.90;;;4.77;;
71622;SDS011;59473;53.214;5.728;2023-07-22T08:25:15;9.50;;;4.03;;
71622;SDS011;59473;53.214;5.728;2023-07-22T08:27:40;9.13;;;4.33;;
71622;SDS011;59473;53.214;5.728;2023-07-22T08:30:05;10.63;;;4.00;;
71622;SDS011;59473;53.214;5.728;2023-07-22T08:32:31;8.82;;;4.13;;
71622;SDS011;59473;53.214;5.728;2023-07-22T08:34:56;10.50;;;3.83;;
71622;SDS011;59473;53.214;5.728;2023-07-22T08:37:21;8.17;;;3.33;;
71622;SDS011;59473;53.214;5.728;2023-07-22T08:39:46;7.40;;;3.50;;
71622;SDS011;59473;53.214;5.728;2023-07-22T08:42:12;9.43;;;3.50;;
71622;SDS011;59473;53.214;5.728;2023-07-22T08:44:38;6.88;;;3.08;;
71622;SDS011;59473;53.214;5.728;2023-07-22T08:47:06;8.02;;;3.20;;
71622;SDS011;59473;53.214;5.728;2023-07-22T08:49:32;7.45;;;3.30;;
71622;SDS011;59473;53.214;5.728;2023-07-22T08:51:58;7.63;;;3.33;;
71622;SDS011;59473;53.214;5.728;2023-07-22T08:54:24;8.38;;;3.60;;
71622;SDS011;59473;53.214;5.728;2023-07-22T08:56:49;9.03;;;3.60;;
71622;SDS011;59473;53.214;5.728;2023-07-22T08:59:17;7.83;;;3.60;;
71622;SDS011;59473;53.214;5.728;2023-07-22T09:01:42;6.47;;;3.03;;
71622;SDS011;59473;53.214;5.728;2023-07-22T09:04:08;7.23;;;2.97;;
71622;SDS011;59473;53.214;5.728;2023-07-22T09:06:34;6.50;;;3.10;;
71622;SDS011;59473;53.214;5.728;2023-07-22T09:08:59;6.78;;;2.97;;
71622;SDS011;59473;53.214;5.728;2023-07-22T09:11:25;7.38;;;3.08;;
71622;SDS011;59473;53.214;5.728;2023-07-22T09:13:50;7.10;;;3.37;;
71622;SDS011;59473;53.214;5.728;2023-07-22T09:16:17;6.90;;;3.25;;
71622;SDS011;59473;53.214;5.728;2023-07-22T09:18:42;7.43;;;2.90;;
71622;SDS011;59473;53.214;5.728;2023-07-22T09:21:07;5.83;;;2.87;;
71622;SDS011;59473;53.214;5.728;2023-07-22T09:23:37;6.70;;;2.90;;
71622;SDS011;59473;53.214;5.728;2023-07-22T09:26:12;7.00;;;2.80;;
71622;SDS011;59473;53.214;5.728;2023-07-22T09:28:50;7.60;;;3.00;;
71622;SDS011;59473;53.214;5.728;2023-07-22T09:31:16;7.07;;;3.50;;
71622;SDS011;59473;53.214;5.728;2023-07-22T09:33:41;7.90;;;3.27;;
71622;SDS011;59473;53.214;5.728;2023-07-22T09:36:09;6.70;;;2.90;;
71622;SDS011;59473;53.214;5.728;2023-07-22T09:38:34;9.07;;;3.78;;
71622;SDS011;59473;53.214;5.728;2023-07-22T09:40:59;7.30;;;3.17;;
71622;SDS011;59473;53.214;5.728;2023-07-22T09:43:25;7.67;;;3.47;;
71622;SDS011;59473;53.214;5.728;2023-07-22T09:45:50;7.70;;;3.67;;
71622;SDS011;59473;53.214;5.728;2023-07-22T09:48:15;8.77;;;3.43;;
71622;SDS011;59473;53.214;5.728;2023-07-22T09:50:40;8.17;;;3.77;;
71622;SDS011;59473;53.214;5.728;2023-07-22T09:53:06;9.37;;;3.83;;
71622;SDS011;59473;53.214;5.728;2023-07-22T09:55:32;8.67;;;3.63;;
71622;SDS011;59473;53.214;5.728;2023-07-22T10:00:48;7.80;;;4.10;;
71622;SDS011;59473;53.214;5.728;2023-07-22T10:03:09;7.85;;;3.88;;
71622;SDS011;59473;53.214;5.728;2023-07-22T10:05:35;9.15;;;3.55;;
71622;SDS011;59473;53.214;5.728;2023-07-22T10:08:01;7.82;;;3.90;;
71622;SDS011;59473;53.214;5.728;2023-07-22T10:12:58;27.95;;;4.15;;
71622;SDS011;59473;53.214;5.728;2023-07-22T10:15:31;7.73;;;3.57;;
71622;SDS011;59473;53.214;5.728;2023-07-22T10:17:58;10.90;;;3.65;;
71622;SDS011;59473;53.214;5.728;2023-07-22T10:20:24;8.38;;;3.75;;
71622;SDS011;59473;53.214;5.728;2023-07-22T10:22:50;11.23;;;3.90;;
71622;SDS011;59473;53.214;5.728;2023-07-22T10:25:16;9.10;;;4.07;;
71622;SDS011;59473;53.214;5.728;2023-07-22T10:27:41;8.27;;;3.67;;
71622;SDS011;59473;53.214;5.728;2023-07-22T10:30:16;8.83;;;4.20;;
71622;SDS011;59473;53.214;5.728;2023-07-22T10:32:44;9.48;;;4.50;;
71622;SDS011;59473;53.214;5.728;2023-07-22T10:35:10;9.55;;;4.10;;
71622;SDS011;59473;53.214;5.728;2023-07-22T10:37:36;9.88;;;4.20;;
71622;SDS011;59473;53.214;5.728;2023-07-22T10:40:18;10.70;;;4.13;;
71622;SDS011;59473;53.214;5.728;2023-07-22T10:42:54;11.20;;;5.22;;
71622;SDS011;59473;53.214;5.728;2023-07-22T10:45:26;11.38;;;5.45;;
71622;SDS011;59473;53.214;5.728;2023-07-22T10:48:02;10.68;;;4.90;;
71622;SDS011;59473;53.214;5.728;2023-07-22T10:50:51;12.48;;;5.30;;
71622;SDS011;59473;53.214;5.728;2023-07-22T10:58:30;8.50;;;4.85;;
71622;SDS011;59473;53.214;5.728;2023-07-22T11:00:55;9.40;;;4.00;;
71622;SDS011;59473;53.214;5.728;2023-07-22T11:03:20;10.20;;;4.63;;
71622;SDS011;59473;53.214;5.728;2023-07-22T11:05:52;10.03;;;5.00;;
71622;SDS011;59473;53.214;5.728;2023-07-22T11:08:36;11.75;;;6.10;;
71622;SDS011;59473;53.214;5.728;2023-07-22T11:11:04;10.98;;;5.15;;
71622;SDS011;59473;53.214;5.728;2023-07-22T11:13:30;10.88;;;5.55;;
71622;SDS011;59473;53.214;5.728;2023-07-22T11:15:59;12.07;;;6.13;;
71622;SDS011;59473;53.214;5.728;2023-07-22T11:18:40;10.60;;;5.73;;
71622;SDS011;59473;53.214;5.728;2023-07-22T11:21:12;11.52;;;6.07;;
71622;SDS011;59473;53.214;5.728;2023-07-22T11:23:37;10.68;;;6.50;;
71622;SDS011;59473;53.214;5.728;2023-07-22T11:26:03;10.90;;;5.90;;
71622;SDS011;59473;53.214;5.728;2023-07-22T11:28:28;11.07;;;6.20;;
71622;SDS011;59473;53.214;5.728;2023-07-22T11:30:53;12.45;;;6.05;;
71622;SDS011;59473;53.214;5.728;2023-07-22T11:33:18;11.55;;;6.15;;
71622;SDS011;59473;53.214;5.728;2023-07-22T11:35:44;11.93;;;6.83;;
71622;SDS011;59473;53.214;5.728;2023-07-22T11:38:11;12.23;;;6.50;;
71622;SDS011;59473;53.214;5.728;2023-07-22T11:40:37;15.82;;;6.40;;
71622;SDS011;59473;53.214;5.728;2023-07-22T11:43:02;11.30;;;6.20;;
71622;SDS011;59473;53.214;5.728;2023-07-22T11:45:27;10.80;;;5.60;;
71622;SDS011;59473;53.214;5.728;2023-07-22T11:47:53;12.30;;;5.20;;
71622;SDS011;59473;53.214;5.728;2023-07-22T11:50:18;10.70;;;5.37;;
71622;SDS011;59473;53.214;5.728;2023-07-22T11:52:49;11.93;;;5.90;;
71622;SDS011;59473;53.214;5.728;2023-07-22T11:55:14;12.52;;;5.75;;
71622;SDS011;59473;53.214;5.728;2023-07-22T11:57:40;9.20;;;5.63;;
71622;SDS011;59473;53.214;5.728;2023-07-22T12:00:07;9.52;;;5.53;;
71622;SDS011;59473;53.214;5.728;2023-07-22T12:02:35;10.63;;;5.13;;
71622;SDS011;59473;53.214;5.728;2023-07-22T12:05:01;8.82;;;5.00;;
71622;SDS011;59473;53.214;5.728;2023-07-22T12:09:53;8.90;;;4.73;;
71622;SDS011;59473;53.214;5.728;2023-07-22T12:12:18;10.40;;;5.10;;
71622;SDS011;59473;53.214;5.728;2023-07-22T12:14:43;9.07;;;4.90;;
71622;SDS011;59473;53.214;5.728;2023-07-22T12:17:09;10.30;;;5.20;;
71622;SDS011;59473;53.214;5.728;2023-07-22T12:19:35;10.15;;;5.00;;
71622;SDS011;59473;53.214;5.728;2023-07-22T12:22:00;9.07;;;4.60;;
71622;SDS011;59473;53.214;5.728;2023-07-22T12:24:26;9.97;;;5.10;;
71622;SDS011;59473;53.214;5.728;2023-07-22T12:26:52;11.10;;;5.35;;
71622;SDS011;59473;53.214;5.728;2023-07-22T12:29:17;10.47;;;4.30;;
71622;SDS011;59473;53.214;5.728;2023-07-22T12:31:42;7.90;;;4.10;;
71622;SDS011;59473;53.214;5.728;2023-07-22T12:34:07;8.73;;;4.87;;
71622;SDS011;59473;53.214;5.728;2023-07-22T12:36:33;11.40;;;4.50;;
71622;SDS011;59473;53.214;5.728;2023-07-22T12:38:58;7.80;;;3.60;;
71622;SDS011;59473;53.214;5.728;2023-07-22T12:41:23;8.50;;;3.23;;
71622;SDS011;59473;53.214;5.728;2023-07-22T12:43:49;7.80;;;3.00;;
71622;SDS011;59473;53.214;5.728;2023-07-22T12:46:14;8.33;;;2.70;;
71622;SDS011;59473;53.214;5.728;2023-07-22T12:48:39;8.90;;;3.37;;
71622;SDS011;59473;53.214;5.728;2023-07-22T12:51:04;9.03;;;3.57;;
71622;SDS011;59473;53.214;5.728;2023-07-22T12:53:30;8.23;;;2.73;;
71622;SDS011;59473;53.214;5.728;2023-07-22T12:55:55;9.17;;;3.40;;
71622;SDS011;59473;53.214;5.728;2023-07-22T12:58:20;8.10;;;3.07;;
71622;SDS011;59473;53.214;5.728;2023-07-22T13:00:45;10.93;;;3.30;;
71622;SDS011;59473;53.214;5.728;2023-07-22T13:03:11;5.70;;;2.87;;
71622;SDS011;59473;53.214;5.728;2023-07-22T13:05:36;10.03;;;3.00;;
71622;SDS011;59473;53.214;5.728;2023-07-22T13:08:01;8.40;;;2.80;;
71622;SDS011;59473;53.214;5.728;2023-07-22T13:10:27;7.83;;;3.13;;
71622;SDS011;59473;53.214;5.728;2023-07-22T13:12:53;9.32;;;3.10;;
71622;SDS011;59473;53.214;5.728;2023-07-22T13:15:19;7.23;;;3.40;;
71622;SDS011;59473;53.214;5.728;2023-07-22T13:17:44;9.63;;;3.33;;
71622;SDS011;59473;53.214;5.728;2023-07-22T13:20:09;9.10;;;2.87;;
71622;SDS011;59473;53.214;5.728;2023-07-22T13:22:36;8.80;;;3.17;;
71622;SDS011;59473;53.214;5.728;2023-07-22T13:25:02;7.83;;;2.93;;
71622;SDS011;59473;53.214;5.728;2023-07-22T13:27:28;6.57;;;2.70;;
71622;SDS011;59473;53.214;5.728;2023-07-22T13:29:53;7.17;;;2.60;;
71622;SDS011;59473;53.214;5.728;2023-07-22T13:32:18;7.67;;;2.77;;
71622;SDS011;59473;53.214;5.728;2023-07-22T13:34:44;7.97;;;2.90;;
71622;SDS011;59473;53.214;5.728;2023-07-22T13:37:09;8.00;;;3.10;;
71622;SDS011;59473;53.214;5.728;2023-07-22T13:39:34;8.13;;;3.53;;
71622;SDS011;59473;53.214;5.728;2023-07-22T13:41:59;9.73;;;3.93;;
71622;SDS011;59473;53.214;5.728;2023-07-22T13:44:24;9.70;;;3.40;;
71622;SDS011;59473;53.214;5.728;2023-07-22T13:46:50;11.93;;;3.23;;
71622;SDS011;59473;53.214;5.728;2023-07-22T13:49:15;10.60;;;3.77;;
71622;SDS011;59473;53.214;5.728;2023-07-22T13:51:40;10.10;;;3.93;;
71622;SDS011;59473;53.214;5.728;2023-07-22T13:54:06;12.60;;;3.90;;
71622;SDS011;59473;53.214;5.728;2023-07-22T13:56:31;11.70;;;4.00;;
71622;SDS011;59473;53.214;5.728;2023-07-22T13:58:56;14.25;;;4.55;;
71622;SDS011;59473;53.214;5.728;2023-07-22T14:01:23;9.80;;;3.57;;
71622;SDS011;59473;53.214;5.728;2023-07-22T14:03:48;9.73;;;4.10;;
71622;SDS011;59473;53.214;5.728;2023-07-22T14:06:14;11.98;;;4.25;;
71622;SDS011;59473;53.214;5.728;2023-07-22T14:08:39;13.02;;;3.95;;
71622;SDS011;59473;53.214;5.728;2023-07-22T14:11:04;12.85;;;4.82;;
71622;SDS011;59473;53.214;5.728;2023-07-22T14:13:29;15.50;;;4.50;;
71622;SDS011;59473;53.214;5.728;2023-07-22T14:15:55;12.27;;;4.83;;
71622;SDS011;59473;53.214;5.728;2023-07-22T14:18:20;13.13;;;4.63;;
71622;SDS011;59473;53.214;5.728;2023-07-22T14:20:45;12.87;;;4.73;;
71622;SDS011;59473;53.214;5.728;2023-07-22T14:23:11;14.07;;;5.60;;
71622;SDS011;59473;53.214;5.728;2023-07-22T14:25:36;15.23;;;5.13;;
71622;SDS011;59473;53.214;5.728;2023-07-22T14:28:02;10.90;;;4.63;;
71622;SDS011;59473;53.214;5.728;2023-07-22T14:30:27;15.63;;;5.10;;
71622;SDS011;59473;53.214;5.728;2023-07-22T14:32:52;14.37;;;5.00;;
71622;SDS011;59473;53.214;5.728;2023-07-22T14:35:18;14.33;;;4.60;;
71622;SDS011;59473;53.214;5.728;2023-07-22T14:37:43;9.93;;;3.97;;
71622;SDS011;59473;53.214;5.728;2023-07-22T14:40:08;11.53;;;4.23;;
71622;SDS011;59473;53.214;5.728;2023-07-22T14:42:34;11.47;;;3.27;;
71622;SDS011;59473;53.214;5.728;2023-07-22T14:44:59;10.50;;;2.60;;